Etusivu
METAR-TAF:

METAR-TAF

Lentoasemat :

Olsztyn-Mazury

Olsztyn, Puola

Leveyspiiri: 53-28-55N, Pituuspiiri: 20-56-16E, korkeus merenpinnasta: 141 m

Tämänhetkinen sää

Tämä raportti tehtiin 16 minuuttia sitten, kello 12.00 UTC
Tuuli 9 kn lännestä, vaihdellen lounaan ja pohjoisen/luoteen välillä
Lämpötila 26°C
Kosteus 39%
Ilmanpaine 1016 hPa
Näkyvyys 10 km tai enemmän
ei pilviä alle 1500 m:ssä eikä cumulonimbus-pilviä

METAR: EPSY 181200Z 28009KT 230V330 CAVOK 26/11 Q1016

Aika: 14:16 (12:16 UTC)

Sääennuste

Tämä raportti tehtiin 46 minuuttia sitten, kello 11.30 UTC
Ennuste voimassa 18. päivästä klo 12 UTC - 18. päivään klo 21 UTC
Tuuli 8 kn lännestä
Näkyvyys 10 km tai enemmän
ei pilviä alle 1500 m:ssä eikä cumulonimbus-pilviä
Todennäköisyys 30% :
Ajoittain
18. päivästä klo 12 UTC - 18. päivään klo 18 UTC
Hajonneita pilviä 3000 ft:n korkeudessa, Cumulonimbus.
heikkoja vesikuuroja,

TAF: EPSY 181130Z 1812/1821 26008KT CAVOK PROB30 TEMPO 1812/1818 -SHRA BKN030CB

Säähavainnot ja -ennusteet yli 4000 lentoasemalta (METAR- ja TAF-raportit).

Käytössä olevat sääasemat on merkitty karttaan keltaisilla ja punaisilla pisteillä.

Aseta hiiri pisteen päälle nähdäksesi sääaseman nimen.

Klikkaa sitten nähdäksesi säähavainnot ja -ennusteet.

Kartan vaihtaminen: klikkaa mustalla rastilla varustettuja vihreitä pisteitä, niin voit zoomata sisään; viivalla varustettua vihreää pistettä, niin voit zoomata ulos tai vihreitä nuolia, niin pääset viereisille kartoille.


METAR-TAF: